createdAt,value
2023-05-09T00:00:46.910Z,0.00
2023-05-09T00:01:47.357Z,0.00
2023-05-09T00:02:46.927Z,0.00
2023-05-09T00:03:46.924Z,0.00
2023-05-09T00:04:47.159Z,0.00
2023-05-09T00:05:46.840Z,0.00
2023-05-09T00:06:46.834Z,0.00
2023-05-09T00:07:46.949Z,0.00
2023-05-09T00:08:46.849Z,0.00
2023-05-09T00:09:47.067Z,0.00
2023-05-09T00:10:47.071Z,0.00
2023-05-09T00:11:47.206Z,0.00
2023-05-09T00:12:46.984Z,0.00
2023-05-09T00:13:46.788Z,0.00
2023-05-09T00:14:47.319Z,0.00
2023-05-09T00:15:47.326Z,0.00
2023-05-09T00:16:47.457Z,0.00
2023-05-09T00:17:47.502Z,0.00
2023-05-09T00:18:46.924Z,0.00
2023-05-09T00:19:46.744Z,0.00
2023-05-09T00:20:46.730Z,0.00
2023-05-09T00:21:47.449Z,0.00
2023-05-09T00:22:46.740Z,0.00
2023-05-09T00:23:47.167Z,0.00
2023-05-09T00:24:46.762Z,0.00
2023-05-09T00:25:46.769Z,0.00
2023-05-09T00:26:46.687Z,0.00
2023-05-09T00:27:46.717Z,0.00
2023-05-09T00:28:46.685Z,0.00
2023-05-09T00:29:46.690Z,0.00
2023-05-09T00:30:46.700Z,0.00
2023-05-09T00:31:46.726Z,0.00
2023-05-09T00:32:46.736Z,0.00
2023-05-09T00:33:46.726Z,0.00
2023-05-09T00:34:46.630Z,0.00
2023-05-09T00:35:46.757Z,0.00
2023-05-09T00:36:46.761Z,0.00
2023-05-09T00:37:46.761Z,0.00
2023-05-09T00:38:46.764Z,0.00
2023-05-09T00:39:46.862Z,0.00
2023-05-09T00:40:46.771Z,0.00
2023-05-09T00:41:46.885Z,0.00
2023-05-09T00:42:46.889Z,0.00
2023-05-09T00:43:46.792Z,0.00
2023-05-09T00:44:46.687Z,0.00
2023-05-09T00:45:46.834Z,0.00
2023-05-09T00:46:47.013Z,0.00
2023-05-09T00:47:47.048Z,0.00
2023-05-09T00:48:46.632Z,0.00
2023-05-09T00:49:46.623Z,0.00
2023-05-09T00:50:47.053Z,0.00
2023-05-09T00:51:47.052Z,0.00
2023-05-09T00:52:47.058Z,0.00
2023-05-09T00:53:47.065Z,0.00
2023-05-09T00:54:46.659Z,0.00
2023-05-09T00:55:47.094Z,0.00
2023-05-09T00:56:46.695Z,0.00
2023-05-09T00:57:46.487Z,0.00
2023-05-09T00:58:46.889Z,0.00
2023-05-09T00:59:46.501Z,0.00
2023-05-09T01:00:46.508Z,0.00
2023-05-09T01:01:46.586Z,0.00
2023-05-09T01:02:46.482Z,0.00
2023-05-09T01:03:46.509Z,0.00
2023-05-09T01:04:46.422Z,0.00
2023-05-09T01:05:46.431Z,0.00
2023-05-09T01:06:46.441Z,0.00
2023-05-09T01:07:46.564Z,0.00
2023-05-09T01:08:46.561Z,0.00
2023-05-09T01:09:46.462Z,0.00
2023-05-09T01:10:46.588Z,0.00
2023-05-09T01:11:46.385Z,0.00
2023-05-09T01:12:46.596Z,0.00
2023-05-09T01:13:46.392Z,0.00
2023-05-09T01:14:46.493Z,0.00
2023-05-09T01:15:46.501Z,0.00
2023-05-09T01:16:46.435Z,0.00
2023-05-09T01:17:46.686Z,0.00
2023-05-09T01:18:46.645Z,0.00
2023-05-09T01:19:46.653Z,0.00
2023-05-09T01:20:46.658Z,0.00
2023-05-09T01:21:46.653Z,0.00
2023-05-09T01:22:46.700Z,0.00
2023-05-09T01:23:46.675Z,0.00
2023-05-09T01:24:46.298Z,0.00
2023-05-09T01:25:46.683Z,0.00
2023-05-09T01:26:46.708Z,0.00
2023-05-09T01:27:46.695Z,0.00
2023-05-09T01:28:46.288Z,0.00
2023-05-09T01:29:46.313Z,0.00
2023-05-09T01:30:46.335Z,0.00
2023-05-09T01:31:46.377Z,0.00
2023-05-09T01:32:46.362Z,0.00
2023-05-09T01:33:46.432Z,0.00
2023-05-09T01:34:46.547Z,0.00
2023-05-09T01:35:46.561Z,0.00
2023-05-09T01:36:46.548Z,0.00
2023-05-09T01:37:46.666Z,0.00
2023-05-09T01:38:46.792Z,0.00
2023-05-09T01:39:46.786Z,0.00
2023-05-09T01:40:46.394Z,0.00
2023-05-09T01:41:46.594Z,0.00
2023-05-09T01:42:46.212Z,0.00
2023-05-09T01:43:46.255Z,0.00
2023-05-09T01:44:46.414Z,0.00
2023-05-09T01:45:46.625Z,0.00
2023-05-09T01:46:46.895Z,0.00
2023-05-09T01:47:46.886Z,0.00
2023-05-09T01:48:46.126Z,0.00
2023-05-09T01:49:46.236Z,0.00
2023-05-09T01:50:46.862Z,0.00
2023-05-09T01:51:46.679Z,0.00
2023-05-09T01:52:46.873Z,0.00
2023-05-09T01:53:46.882Z,0.00
2023-05-09T01:54:46.531Z,0.00
2023-05-09T01:55:46.480Z,0.00
2023-05-09T01:56:46.079Z,0.00
2023-05-09T01:57:46.969Z,0.00
2023-05-09T01:58:46.062Z,0.00
2023-05-09T01:59:46.028Z,0.00
2023-05-09T02:00:46.209Z,0.00
2023-05-09T02:01:46.178Z,0.00
2023-05-09T02:02:46.336Z,0.00
2023-05-09T02:03:46.019Z,0.00
2023-05-09T02:04:46.146Z,0.00
2023-05-09T02:05:46.451Z,0.00
2023-05-09T02:06:46.173Z,0.00
2023-05-09T02:07:46.586Z,0.00
2023-05-09T02:08:46.586Z,0.00
2023-05-09T02:09:45.972Z,0.00
2023-05-09T02:10:46.821Z,0.00
2023-05-09T02:11:46.184Z,0.00
2023-05-09T02:12:46.835Z,0.00
2023-05-09T02:13:45.990Z,0.00
2023-05-09T02:14:45.998Z,0.00
2023-05-09T02:15:46.002Z,0.00
2023-05-09T02:16:47.000Z,0.00
2023-05-09T02:17:46.860Z,0.00
2023-05-09T02:18:46.637Z,0.00
2023-05-09T02:19:46.863Z,0.00
2023-05-09T02:20:46.846Z,0.00
2023-05-09T02:21:45.871Z,0.00
2023-05-09T02:22:45.867Z,0.00
2023-05-09T02:23:45.878Z,0.00
2023-05-09T02:24:46.683Z,0.00
2023-05-09T02:25:45.886Z,0.00
2023-05-09T02:26:45.903Z,0.00
2023-05-09T02:27:46.013Z,0.00
2023-05-09T02:28:45.912Z,0.00
2023-05-09T02:29:45.925Z,0.00
2023-05-09T02:30:45.823Z,0.00
2023-05-09T02:31:45.934Z,0.00
2023-05-09T02:32:45.956Z,0.00
2023-05-09T02:33:45.936Z,0.00
2023-05-09T02:34:45.934Z,0.00
2023-05-09T02:35:46.055Z,0.00
2023-05-09T02:36:45.954Z,0.00
2023-05-09T02:37:45.769Z,0.00
2023-05-09T02:38:45.759Z,0.00
2023-05-09T02:39:45.876Z,0.00
2023-05-09T02:40:46.004Z,0.00
2023-05-09T02:41:45.784Z,0.00
2023-05-09T02:42:45.990Z,0.00
2023-05-09T02:43:46.056Z,0.00
2023-05-09T02:44:45.809Z,0.00
2023-05-09T02:45:45.817Z,0.00
2023-05-09T02:46:46.030Z,0.00
2023-05-09T02:47:46.073Z,0.00
2023-05-09T02:48:46.043Z,0.00
2023-05-09T02:49:46.046Z,0.00
2023-05-09T02:50:46.054Z,0.00
2023-05-09T02:51:46.053Z,0.00
2023-05-09T02:52:45.668Z,0.00
2023-05-09T02:53:45.692Z,0.00
2023-05-09T02:54:45.710Z,0.00
2023-05-09T02:55:45.700Z,0.00
2023-05-09T02:56:45.739Z,0.00
2023-05-09T02:57:45.802Z,0.00
2023-05-09T02:58:45.804Z,0.00
2023-05-09T02:59:45.807Z,0.00
2023-05-09T03:00:45.944Z,0.00
2023-05-09T03:01:45.886Z,0.00
2023-05-09T03:02:46.195Z,0.00
2023-05-09T03:03:46.348Z,0.00
2023-05-09T03:04:45.737Z,0.00
2023-05-09T03:05:45.949Z,0.00
2023-05-09T03:06:45.756Z,0.00
2023-05-09T03:07:46.389Z,0.00
2023-05-09T03:08:45.579Z,0.00
2023-05-09T03:09:46.056Z,0.00
2023-05-09T03:10:46.028Z,4.00
2023-05-09T03:11:46.197Z,1.00
2023-05-09T03:12:46.456Z,0.00
2023-05-09T03:13:45.805Z,0.00
2023-05-09T03:14:45.602Z,1.00
2023-05-09T03:15:46.051Z,1.00
2023-05-09T03:16:46.292Z,5.00
2023-05-09T03:17:46.462Z,1.00
2023-05-09T03:18:45.628Z,3.00
2023-05-09T03:19:45.470Z,2.00
2023-05-09T03:20:46.420Z,3.00
2023-05-09T03:21:45.470Z,3.00
2023-05-09T03:22:45.506Z,10.00
2023-05-09T03:23:45.473Z,8.00
2023-05-09T03:24:45.578Z,4.00
2023-05-09T03:25:45.584Z,12.00
2023-05-09T03:26:45.700Z,18.00
2023-05-09T03:27:45.495Z,13.00
2023-05-09T03:28:45.805Z,15.00
2023-05-09T03:29:45.948Z,17.00
2023-05-09T03:30:45.924Z,23.00
2023-05-09T03:31:46.083Z,22.00
2023-05-09T03:32:45.582Z,27.00
2023-05-09T03:33:46.163Z,31.00
2023-05-09T03:34:45.360Z,37.00
2023-05-09T03:35:46.264Z,38.00
2023-05-09T03:36:45.351Z,42.00
2023-05-09T03:37:45.565Z,47.00
2023-05-09T03:38:45.772Z,51.00
2023-05-09T03:39:46.395Z,85.00
2023-05-09T03:40:45.788Z,102.00
2023-05-09T03:41:45.381Z,122.00
2023-05-09T03:42:45.831Z,138.00
2023-05-09T03:43:46.274Z,152.00
2023-05-09T03:44:46.175Z,146.00
2023-05-09T03:45:46.054Z,158.00
2023-05-09T03:46:46.084Z,181.00
2023-05-09T03:47:45.891Z,206.00
2023-05-09T03:48:45.845Z,254.00
2023-05-09T03:49:45.269Z,267.00
2023-05-09T03:50:45.272Z,280.00
2023-05-09T03:51:45.282Z,307.00
2023-05-09T03:52:45.295Z,330.00
2023-05-09T03:53:45.273Z,333.00
2023-05-09T03:54:45.265Z,358.00
2023-05-09T03:55:45.516Z,359.00
2023-05-09T03:56:46.684Z,384.00
2023-05-09T03:57:45.613Z,423.00
2023-05-09T03:58:45.509Z,445.00
2023-05-09T03:59:45.756Z,479.00
2023-05-09T04:00:45.730Z,509.00
2023-05-09T04:01:45.985Z,535.00
2023-05-09T04:02:45.994Z,558.00
2023-05-09T04:03:46.137Z,588.00
2023-05-09T04:04:45.144Z,631.00
2023-05-09T04:05:45.553Z,675.00
2023-05-09T04:06:45.149Z,713.00
2023-05-09T04:07:46.007Z,752.00
2023-05-09T04:08:45.786Z,781.00
2023-05-09T04:09:45.176Z,832.00
2023-05-09T04:10:45.982Z,861.00
2023-05-09T04:11:45.394Z,907.00
2023-05-09T04:12:45.615Z,938.00
2023-05-09T04:13:45.820Z,970.00
2023-05-09T04:14:48.811Z,1004.00
2023-05-09T04:15:46.006Z,1030.00
2023-05-09T04:16:46.007Z,1112.00
2023-05-09T04:17:45.096Z,1195.00
2023-05-09T04:18:45.032Z,1224.00
2023-05-09T04:19:45.163Z,1271.00
2023-05-09T04:20:45.158Z,1229.00
2023-05-09T04:21:45.269Z,1225.00
2023-05-09T04:22:46.940Z,1279.00
2023-05-09T04:23:45.383Z,1354.00
2023-05-09T04:24:45.389Z,1427.00
2023-05-09T04:25:45.298Z,1499.00
2023-05-09T04:26:45.503Z,1559.00
2023-05-09T04:27:45.198Z,1589.00
2023-05-09T04:28:45.618Z,1630.00
2023-05-09T04:29:45.734Z,1717.00
2023-05-09T04:30:45.810Z,1833.00
2023-05-09T04:31:45.222Z,1960.00
2023-05-09T04:32:44.965Z,1999.00
2023-05-09T04:33:44.934Z,2028.00
2023-05-09T04:34:44.946Z,2084.00
2023-05-09T04:35:44.965Z,2109.00
2023-05-09T04:36:44.961Z,2060.00
2023-05-09T04:37:44.964Z,2119.00
2023-05-09T04:38:44.969Z,2158.00
2023-05-09T04:39:44.987Z,2191.00
2023-05-09T04:40:44.992Z,2214.00
2023-05-09T04:41:44.992Z,2241.00
2023-05-09T04:42:45.006Z,2242.00
2023-05-09T04:43:45.116Z,2282.00
2023-05-09T04:44:45.123Z,2289.00
2023-05-09T04:45:44.863Z,2277.00
2023-05-09T04:46:44.886Z,2308.00
2023-05-09T04:47:44.954Z,2377.00
2023-05-09T04:48:44.849Z,2406.00
2023-05-09T04:49:44.983Z,2406.00
2023-05-09T04:50:44.975Z,2432.00
2023-05-09T04:51:44.987Z,2482.00
2023-05-09T04:52:45.100Z,2634.00
2023-05-09T04:53:45.200Z,2725.00
2023-05-09T04:54:45.201Z,2799.00
2023-05-09T04:55:45.208Z,2881.00
2023-05-09T04:56:45.264Z,2985.00
2023-05-09T04:57:45.214Z,3077.00
2023-05-09T04:58:45.216Z,3142.00
2023-05-09T04:59:44.756Z,3234.00
2023-05-09T05:00:44.919Z,3336.00
2023-05-09T05:01:45.259Z,3396.00
2023-05-09T05:02:45.229Z,3228.00
2023-05-09T05:03:44.758Z,3478.00
2023-05-09T05:04:46.285Z,3690.00
2023-05-09T05:05:44.923Z,3832.00
2023-05-09T05:06:44.698Z,3940.00
2023-05-09T05:07:44.769Z,4009.00
2023-05-09T05:08:45.389Z,4351.00
2023-05-09T05:09:44.685Z,4733.00
2023-05-09T05:10:44.892Z,4360.00
2023-05-09T05:11:57.098Z,4169.00
2023-05-09T05:12:45.473Z,4310.00
2023-05-09T05:13:44.912Z,4571.00
2023-05-09T05:14:45.603Z,4689.00
2023-05-09T05:15:44.698Z,4679.00
2023-05-09T05:16:44.741Z,4784.00
2023-05-09T05:17:44.884Z,4801.00
2023-05-09T05:18:44.661Z,4726.00
2023-05-09T05:19:44.750Z,4924.00
2023-05-09T05:20:44.615Z,5238.00
2023-05-09T05:21:44.771Z,5554.00
2023-05-09T05:22:44.695Z,5538.00
2023-05-09T05:23:44.983Z,5509.00
2023-05-09T05:24:45.099Z,5569.00
2023-05-09T05:25:44.584Z,5766.00
2023-05-09T05:26:44.820Z,5928.00
2023-05-09T05:27:44.701Z,5929.00
2023-05-09T05:28:44.612Z,6027.00
2023-05-09T05:29:44.543Z,6102.00
2023-05-09T05:30:45.132Z,6108.00
2023-05-09T05:31:44.635Z,6048.00
2023-05-09T05:32:44.798Z,6056.00
2023-05-09T05:33:44.540Z,6039.00
2023-05-09T05:36:10.702Z,0.00
2023-05-09T05:37:10.769Z,5679.00
2023-05-09T05:38:10.472Z,5741.00
2023-05-09T05:39:10.785Z,5567.00
2023-05-09T05:40:10.810Z,5792.00
2023-05-09T05:41:10.801Z,6002.00
2023-05-09T05:42:10.807Z,6255.00
2023-05-09T05:43:10.417Z,6158.00
2023-05-09T05:44:10.731Z,6414.00
2023-05-09T05:45:10.419Z,7083.00
2023-05-09T05:46:10.454Z,6792.00
2023-05-09T05:47:10.440Z,6581.00
2023-05-09T05:48:10.623Z,6517.00
2023-05-09T05:49:10.562Z,6990.00
2023-05-09T05:50:10.354Z,7577.00
2023-05-09T05:51:10.812Z,6112.00
2023-05-09T05:52:10.776Z,7636.00
2023-05-09T05:53:10.852Z,7234.00
2023-05-09T05:54:10.977Z,7045.00
2023-05-09T05:55:11.009Z,6710.00
2023-05-09T05:56:10.816Z,6991.00
2023-05-09T05:57:10.298Z,7015.00
2023-05-09T05:58:10.315Z,7245.00
2023-05-09T05:59:11.350Z,7276.00
2023-05-09T06:00:11.047Z,7115.00
2023-05-09T06:01:10.340Z,6486.00
2023-05-09T06:02:10.438Z,7040.00
2023-05-09T06:03:10.318Z,6968.00
2023-05-09T06:04:10.344Z,6963.00
2023-05-09T06:05:11.063Z,7325.00
2023-05-09T06:06:10.262Z,7134.00
2023-05-09T06:07:10.369Z,7253.00
2023-05-09T06:08:10.380Z,7458.00
2023-05-09T06:09:10.383Z,6702.00
2023-05-09T06:10:10.206Z,7197.00
2023-05-09T06:11:10.394Z,7271.00
2023-05-09T06:12:10.205Z,7644.00
2023-05-09T06:13:10.234Z,8447.00
2023-05-09T06:14:10.217Z,7602.00
2023-05-09T06:15:10.331Z,7692.00
2023-05-09T06:17:10.518Z,8309.00
2023-05-09T06:18:10.511Z,8942.00
2023-05-09T06:19:10.450Z,9071.00
2023-05-09T06:20:10.161Z,8821.00
2023-05-09T06:21:10.470Z,8334.00
2023-05-09T06:22:10.481Z,7822.00
2023-05-09T06:23:10.579Z,7212.00
2023-05-09T06:24:19.816Z,7000.00
2023-05-09T06:25:10.717Z,7729.00
2023-05-09T06:26:10.199Z,7052.00
2023-05-09T06:27:10.203Z,6380.00
2023-05-09T06:28:10.215Z,6285.00
2023-05-09T06:29:10.139Z,6756.00
2023-05-09T06:31:10.368Z,6661.00
2023-05-09T06:32:10.349Z,6463.00
2023-05-09T06:33:10.358Z,7062.00
2023-05-09T06:34:10.149Z,7144.00
2023-05-09T06:35:10.535Z,6809.00
2023-05-09T06:36:10.067Z,6693.00
2023-05-09T06:37:10.600Z,6567.00
2023-05-09T06:38:10.603Z,6369.00
2023-05-09T06:39:10.592Z,6254.00
2023-05-09T06:40:10.729Z,6114.00
2023-05-09T06:41:10.995Z,7053.00
2023-05-09T06:42:10.020Z,8589.00
2023-05-09T06:43:10.018Z,9980.00
2023-05-09T06:44:10.119Z,10283.00
2023-05-09T06:45:10.063Z,9918.00
2023-05-09T06:46:10.063Z,10096.00
2023-05-09T06:47:09.960Z,9729.00
2023-05-09T06:48:10.019Z,8958.00
2023-05-09T06:49:09.939Z,8322.00
2023-05-09T06:50:10.072Z,8415.00
2023-05-09T06:51:09.936Z,8854.00
2023-05-09T06:52:10.079Z,9696.00
2023-05-09T06:53:09.977Z,9880.00
2023-05-09T06:54:09.908Z,9170.00
2023-05-09T06:55:10.932Z,8781.00
2023-05-09T06:56:10.415Z,8765.00
2023-05-09T06:57:09.898Z,8881.00
2023-05-09T06:58:09.891Z,8907.00
2023-05-09T06:59:09.921Z,9076.00
2023-05-09T07:00:10.237Z,8788.00
2023-05-09T07:01:10.567Z,8926.00
2023-05-09T07:02:10.455Z,8461.00
2023-05-09T07:03:09.898Z,8378.00
2023-05-09T07:04:10.853Z,8098.00
2023-05-09T07:05:10.302Z,8077.00
2023-05-09T07:06:10.276Z,8406.00
2023-05-09T07:07:10.493Z,9008.00
2023-05-09T07:08:10.083Z,8991.00
2023-05-09T07:09:10.618Z,10589.00
2023-05-09T07:10:11.992Z,9516.00
2023-05-09T07:11:09.806Z,9618.00
2023-05-09T07:12:09.916Z,9639.00
2023-05-09T07:13:09.969Z,9149.00
2023-05-09T07:14:09.821Z,9520.00
2023-05-09T07:15:09.765Z,9495.00
2023-05-09T07:16:09.837Z,9767.00
2023-05-09T07:17:22.072Z,10555.00
2023-05-09T07:18:09.840Z,10967.00
2023-05-09T07:19:09.778Z,11279.00
2023-05-09T07:20:09.788Z,11083.00
2023-05-09T07:21:09.770Z,11125.00
2023-05-09T07:22:09.812Z,10557.00
2023-05-09T07:23:09.802Z,10265.00
2023-05-09T07:24:09.715Z,10987.00
2023-05-09T07:25:09.731Z,11249.00
2023-05-09T07:26:09.722Z,11431.00
2023-05-09T07:27:09.722Z,10911.00
2023-05-09T07:28:09.720Z,10481.00
2023-05-09T07:29:09.736Z,10410.00
2023-05-09T07:30:09.740Z,10822.00
2023-05-09T07:31:09.737Z,10800.00
2023-05-09T07:32:09.794Z,11289.00
2023-05-09T07:33:09.728Z,11675.00
2023-05-09T07:34:09.653Z,12043.00
2023-05-09T07:35:09.700Z,12509.00
2023-05-09T07:36:09.882Z,12094.00
2023-05-09T07:37:09.679Z,13020.00
2023-05-09T07:38:09.890Z,13106.00
2023-05-09T07:39:09.591Z,13290.00
2023-05-09T07:40:09.605Z,12889.00
2023-05-09T07:41:09.732Z,12331.00
2023-05-09T07:42:09.736Z,11466.00
2023-05-09T07:43:09.837Z,10599.00
2023-05-09T07:44:09.745Z,10284.00
2023-05-09T07:45:09.959Z,10195.00
2023-05-09T07:46:09.993Z,10112.00
2023-05-09T07:47:09.536Z,10178.00
2023-05-09T07:48:09.685Z,10618.00
2023-05-09T07:49:09.781Z,11976.00
2023-05-09T07:50:09.769Z,12453.00
2023-05-09T07:51:09.584Z,13633.00
2023-05-09T07:52:10.089Z,13479.00
2023-05-09T07:53:09.795Z,13079.00
2023-05-09T07:54:09.588Z,11887.00
2023-05-09T07:55:10.122Z,12484.00
2023-05-09T07:56:09.806Z,12796.00
2023-05-09T07:57:10.132Z,11581.00
2023-05-09T07:58:10.133Z,9788.00
2023-05-09T07:59:09.455Z,9689.00
2023-05-09T08:00:09.727Z,10343.00
2023-05-09T08:01:09.886Z,8654.00
2023-05-09T08:02:10.192Z,8526.00
2023-05-09T08:03:10.461Z,8967.00
2023-05-09T08:04:09.996Z,10351.00
2023-05-09T08:05:10.081Z,8696.00
2023-05-09T08:06:09.880Z,7268.00
2023-05-09T08:07:09.480Z,8241.00
2023-05-09T08:08:09.488Z,8109.00
2023-05-09T08:09:09.406Z,6867.00
2023-05-09T08:10:09.370Z,8363.00
2023-05-09T08:11:09.504Z,11334.00
2023-05-09T08:12:09.517Z,12266.00
2023-05-09T08:13:09.681Z,13317.00
2023-05-09T08:14:09.425Z,14901.00
2023-05-09T08:15:09.454Z,15029.00
2023-05-09T08:16:09.826Z,16850.00
2023-05-09T08:17:09.867Z,14853.00
2023-05-09T08:18:09.972Z,15261.00
2023-05-09T08:19:09.979Z,16799.00
2023-05-09T08:20:09.369Z,15190.00
2023-05-09T08:21:09.376Z,12387.00
2023-05-09T08:22:09.388Z,13089.00
2023-05-09T08:23:09.297Z,12798.00
2023-05-09T08:24:09.301Z,13074.00
2023-05-09T08:25:09.307Z,13702.00
2023-05-09T08:26:09.406Z,12696.00
2023-05-09T08:27:09.423Z,11613.00
2023-05-09T08:28:09.449Z,9815.00
2023-05-09T08:29:09.449Z,10248.00
2023-05-09T08:30:09.371Z,11826.00
2023-05-09T08:31:09.391Z,10223.00
2023-05-09T08:32:09.574Z,8057.00
2023-05-09T08:33:09.728Z,7383.00
2023-05-09T08:34:09.258Z,7537.00
2023-05-09T08:35:09.293Z,8456.00
2023-05-09T08:36:09.198Z,9407.00
2023-05-09T08:37:09.199Z,9330.00
2023-05-09T08:38:09.258Z,9921.00
2023-05-09T08:39:09.193Z,9087.00
2023-05-09T08:40:09.419Z,8484.00
2023-05-09T08:41:09.214Z,10298.00
2023-05-09T08:42:09.340Z,10783.00
2023-05-09T08:43:09.441Z,11988.00
2023-05-09T08:44:09.231Z,12015.00
2023-05-09T08:45:09.254Z,11000.00
2023-05-09T08:46:09.168Z,12242.00
2023-05-09T08:47:09.458Z,14306.00
2023-05-09T08:48:09.179Z,15216.00
2023-05-09T08:49:09.903Z,13816.00
2023-05-09T08:50:09.074Z,14194.00
2023-05-09T08:51:09.177Z,13787.00
2023-05-09T08:52:09.181Z,13822.00
2023-05-09T08:53:09.296Z,13697.00
2023-05-09T08:54:09.501Z,13825.00
2023-05-09T08:55:09.109Z,13435.00
2023-05-09T08:56:09.222Z,14495.00
2023-05-09T08:57:09.233Z,15343.00
2023-05-09T08:58:10.469Z,15387.00
2023-05-09T08:59:09.848Z,15189.00
2023-05-09T09:00:09.866Z,13962.00
2023-05-09T09:01:09.149Z,12005.00
2023-05-09T09:02:10.102Z,10613.00
2023-05-09T09:03:09.643Z,10911.00
2023-05-09T09:04:09.282Z,11687.00
2023-05-09T09:05:19.635Z,9510.00
2023-05-09T09:06:08.994Z,11086.00
2023-05-09T09:07:08.992Z,12438.00
2023-05-09T09:08:09.100Z,14688.00
2023-05-09T09:09:09.034Z,18748.00
2023-05-09T09:10:09.000Z,19642.00
2023-05-09T09:11:09.339Z,20259.00
2023-05-09T09:12:09.232Z,18776.00
2023-05-09T09:13:09.453Z,20932.00
2023-05-09T09:14:08.928Z,21774.00
2023-05-09T09:15:09.457Z,18169.00
2023-05-09T09:16:08.965Z,14650.00
2023-05-09T09:17:09.576Z,18156.00
2023-05-09T09:18:11.776Z,20385.00
2023-05-09T09:19:09.696Z,17337.00
2023-05-09T09:20:09.833Z,15146.00
2023-05-09T09:21:08.889Z,13842.00
2023-05-09T09:22:08.898Z,18450.00
2023-05-09T09:23:08.924Z,21429.00
2023-05-09T09:24:08.988Z,18576.00
2023-05-09T09:25:08.920Z,16272.00
2023-05-09T09:26:08.918Z,15014.00
2023-05-09T09:27:08.947Z,12582.00
2023-05-09T09:28:09.030Z,11012.00
2023-05-09T09:29:09.148Z,9377.00
2023-05-09T09:30:08.854Z,9246.00
2023-05-09T09:31:08.970Z,12271.00
2023-05-09T09:32:08.955Z,13957.00
2023-05-09T09:33:08.839Z,13486.00
2023-05-09T09:34:08.796Z,13597.00
2023-05-09T09:35:08.803Z,13066.00
2023-05-09T09:36:08.801Z,12698.00
2023-05-09T09:37:08.803Z,10478.00
2023-05-09T09:38:08.793Z,8502.00
2023-05-09T09:39:08.805Z,6623.00
2023-05-09T09:40:08.819Z,5987.00
2023-05-09T09:41:08.921Z,5438.00
2023-05-09T09:42:08.925Z,6384.00
2023-05-09T09:43:08.838Z,7524.00
2023-05-09T09:44:09.013Z,9895.00
2023-05-09T09:45:08.762Z,13750.00
2023-05-09T09:46:08.786Z,13589.00
2023-05-09T09:47:08.957Z,13351.00
2023-05-09T09:48:08.732Z,13178.00
2023-05-09T09:49:08.977Z,13223.00
2023-05-09T09:50:08.790Z,12434.00
2023-05-09T09:51:08.917Z,10913.00
2023-05-09T09:52:08.707Z,9998.00
2023-05-09T09:53:08.693Z,9735.00
2023-05-09T09:54:08.800Z,8849.00
2023-05-09T09:55:09.020Z,8620.00
2023-05-09T09:56:09.022Z,8280.00
2023-05-09T09:57:09.139Z,8275.00
2023-05-09T09:58:08.932Z,8125.00
2023-05-09T09:59:08.676Z,8259.00
2023-05-09T10:00:09.218Z,8621.00
2023-05-09T10:01:09.317Z,8034.00
2023-05-09T10:02:08.991Z,6928.00
2023-05-09T10:03:08.673Z,6515.00
2023-05-09T10:04:08.780Z,6156.00
2023-05-09T10:05:08.692Z,6110.00
2023-05-09T10:06:08.718Z,5730.00
2023-05-09T10:07:09.031Z,6807.00
2023-05-09T10:08:08.590Z,8456.00
2023-05-09T10:09:09.021Z,8870.00
2023-05-09T10:10:09.028Z,7809.00
2023-05-09T10:11:08.623Z,6826.00
2023-05-09T10:12:08.564Z,7666.00
2023-05-09T10:13:08.875Z,8023.00
2023-05-09T10:14:09.259Z,8444.00
2023-05-09T10:15:08.852Z,8528.00
2023-05-09T10:16:09.000Z,8632.00
2023-05-09T10:17:08.661Z,9066.00
2023-05-09T10:18:08.645Z,9616.00
2023-05-09T10:19:08.504Z,9560.00
2023-05-09T10:20:08.478Z,8947.00
2023-05-09T10:21:08.486Z,8265.00
2023-05-09T10:22:08.499Z,6343.00
2023-05-09T10:23:08.528Z,4767.00
2023-05-09T10:24:08.605Z,4492.00
2023-05-09T10:25:08.424Z,6586.00
2023-05-09T10:26:08.435Z,8860.00
2023-05-09T10:27:08.549Z,7769.00
2023-05-09T10:28:08.437Z,6311.00
2023-05-09T10:29:08.546Z,8002.00
2023-05-09T10:30:08.707Z,11570.00
2023-05-09T10:31:08.956Z,12091.00
2023-05-09T10:32:08.362Z,12567.00
2023-05-09T10:33:08.441Z,11927.00
2023-05-09T10:34:08.384Z,12337.00
2023-05-09T10:35:08.369Z,11315.00
2023-05-09T10:36:08.587Z,9063.00
2023-05-09T10:37:08.702Z,8254.00
2023-05-09T10:38:08.727Z,8703.00
2023-05-09T10:39:08.726Z,7764.00
2023-05-09T10:40:08.524Z,6250.00
2023-05-09T10:41:08.323Z,5344.00
2023-05-09T10:42:08.728Z,6044.00
2023-05-09T10:43:08.534Z,7505.00
2023-05-09T10:44:08.847Z,8716.00
2023-05-09T10:45:08.865Z,9338.00
2023-05-09T10:46:08.334Z,9862.00
2023-05-09T10:47:08.596Z,11150.00
2023-05-09T10:48:09.059Z,11998.00
2023-05-09T10:49:08.673Z,12111.00
2023-05-09T10:50:08.264Z,11677.00
2023-05-09T10:51:08.909Z,11458.00
2023-05-09T10:52:08.841Z,11707.00
2023-05-09T10:53:09.024Z,12026.00
2023-05-09T10:54:08.913Z,12291.00
2023-05-09T10:55:08.304Z,13484.00
2023-05-09T10:56:08.211Z,16935.00
2023-05-09T10:57:08.526Z,18652.00
2023-05-09T10:58:08.232Z,18491.00
2023-05-09T10:59:08.237Z,16503.00
2023-05-09T11:00:08.240Z,13024.00
2023-05-09T11:01:08.264Z,10917.00
2023-05-09T11:02:08.166Z,9835.00
2023-05-09T11:03:08.381Z,9060.00
2023-05-09T11:04:08.505Z,8470.00
2023-05-09T11:05:08.619Z,8380.00
2023-05-09T11:06:08.172Z,8095.00
2023-05-09T11:07:08.409Z,7411.00
2023-05-09T11:08:08.501Z,9272.00
2023-05-09T11:09:08.827Z,11889.00
2023-05-09T11:10:08.234Z,12487.00
2023-05-09T11:11:08.528Z,11431.00
2023-05-09T11:12:08.630Z,11329.00
2023-05-09T11:13:08.685Z,12384.00
2023-05-09T11:14:08.060Z,11814.00
2023-05-09T11:15:08.092Z,10832.00
2023-05-09T11:16:08.058Z,9189.00
2023-05-09T11:17:08.053Z,8314.00
2023-05-09T11:18:08.467Z,8644.00
2023-05-09T11:19:08.098Z,9284.00
2023-05-09T11:20:08.100Z,14420.00
2023-05-09T11:21:08.083Z,13751.00
2023-05-09T11:22:08.086Z,14224.00
2023-05-09T11:23:08.008Z,11819.00
2023-05-09T11:24:07.998Z,10564.00
2023-05-09T11:25:08.026Z,11869.00
2023-05-09T11:26:08.048Z,12844.00
2023-05-09T11:27:08.028Z,13190.00
2023-05-09T11:28:08.038Z,13681.00
2023-05-09T11:29:07.965Z,14725.00
2023-05-09T11:30:07.964Z,15251.00
2023-05-09T11:31:08.065Z,17414.00
2023-05-09T11:32:08.149Z,14937.00
2023-05-09T11:33:07.992Z,13228.00
2023-05-09T11:35:34.170Z,0.00
2023-05-09T11:36:34.132Z,25913.00
2023-05-09T11:37:34.435Z,24766.00
2023-05-09T11:38:34.420Z,20442.00
2023-05-09T11:39:34.125Z,16455.00
2023-05-09T11:40:33.883Z,11669.00
2023-05-09T11:41:33.839Z,8558.00
2023-05-09T11:42:34.129Z,7996.00
2023-05-09T11:43:34.148Z,9626.00
2023-05-09T11:44:34.338Z,7131.00
2023-05-09T11:45:34.561Z,16169.00
2023-05-09T11:46:34.577Z,71447.00
2023-05-09T11:47:34.033Z,38193.00
2023-05-09T11:48:34.204Z,39276.00
2023-05-09T11:49:34.591Z,44386.00
2023-05-09T11:50:34.191Z,29904.00
2023-05-09T11:51:33.799Z,23904.00
2023-05-09T11:52:33.760Z,20555.00
2023-05-09T11:53:33.795Z,18244.00
2023-05-09T11:54:33.909Z,17897.00
2023-05-09T11:55:33.985Z,15636.00
2023-05-09T11:56:33.752Z,12376.00
2023-05-09T11:57:33.917Z,8258.00
2023-05-09T11:58:33.917Z,4644.00
2023-05-09T11:59:33.739Z,16125.00
2023-05-09T12:00:33.822Z,22497.00
2023-05-09T12:01:33.699Z,20101.00
2023-05-09T12:02:33.751Z,17297.00
2023-05-09T12:03:33.751Z,14681.00
2023-05-09T12:04:33.714Z,11703.00
2023-05-09T12:05:33.712Z,8365.00
2023-05-09T12:06:33.705Z,7312.00
2023-05-09T12:07:33.698Z,7965.00
2023-05-09T12:08:33.833Z,10190.00
2023-05-09T12:09:33.801Z,13169.00
2023-05-09T12:10:33.728Z,13814.00
2023-05-09T12:11:33.616Z,13618.00
2023-05-09T12:12:33.619Z,10560.00
2023-05-09T12:13:33.635Z,10993.00
2023-05-09T12:14:33.645Z,15044.00
2023-05-09T12:15:33.659Z,16206.00
2023-05-09T12:16:33.603Z,18579.00
2023-05-09T12:17:33.688Z,18278.00
2023-05-09T12:18:33.681Z,16169.00
2023-05-09T12:19:33.541Z,14046.00
2023-05-09T12:20:33.536Z,13791.00
2023-05-09T12:21:33.602Z,9971.00
2023-05-09T12:22:33.576Z,12957.00
2023-05-09T12:23:33.572Z,13504.00
2023-05-09T12:24:33.510Z,15495.00
2023-05-09T12:25:33.512Z,15416.00